createdAt,value
2023-04-09T00:00:44.572Z,102342.63
2023-04-09T00:03:17.223Z,102333.06
2023-04-09T00:05:49.308Z,102330.25
2023-04-09T00:08:21.427Z,102331.16
2023-04-09T00:10:54.449Z,102330.13
2023-04-09T00:13:38.738Z,102329.06
2023-04-09T00:16:11.694Z,102331.44
2023-04-09T00:18:43.626Z,102324.22
2023-04-09T00:21:16.620Z,102292.59
2023-04-09T00:23:48.588Z,102324.22
2023-04-09T00:26:21.430Z,102316.19
2023-04-09T00:28:53.668Z,102326.84
2023-04-09T00:31:25.753Z,102318.06
2023-04-09T00:33:57.738Z,102313.66
2023-04-09T00:36:29.686Z,102310.84
2023-04-09T00:39:01.616Z,102312.59
2023-04-09T00:41:33.588Z,102311.75
2023-04-09T00:44:05.689Z,102313.31
2023-04-09T00:46:38.031Z,102307.75
2023-04-09T00:49:10.396Z,102294.25
2023-04-09T00:51:43.805Z,102312.25
2023-04-09T00:54:16.325Z,102312.19
2023-04-09T00:56:48.318Z,102313.94
2023-04-09T00:59:20.477Z,102317.22
2023-04-09T01:01:52.436Z,102312.72
2023-04-09T01:04:25.351Z,102314.34
2023-04-09T01:07:13.214Z,102307.13
2023-04-09T01:10:01.422Z,102305.47
2023-04-09T01:12:39.112Z,102295.69
2023-04-09T01:15:25.587Z,102295.28
2023-04-09T01:18:10.168Z,102296.19
2023-04-09T01:20:59.785Z,102295.19
2023-04-09T01:23:59.900Z,102295.28
2023-04-09T01:26:57.256Z,102302.28
2023-04-09T01:29:35.718Z,102291.97
2023-04-09T01:32:09.617Z,102299.28
2023-04-09T01:34:45.024Z,102293.09
2023-04-09T01:37:18.954Z,102283.91
2023-04-09T01:39:51.396Z,102286.03
2023-04-09T01:42:23.652Z,102294.91
2023-04-09T01:44:56.859Z,102278.63
2023-04-09T01:47:30.378Z,102284.88
2023-04-09T01:50:03.212Z,102289.34
2023-04-09T01:52:35.572Z,102299.22
2023-04-09T01:55:08.234Z,102286.69
2023-04-09T01:57:40.422Z,102294.91
2023-04-09T02:00:13.435Z,102285.34
2023-04-09T02:03:25.053Z,102284.81
2023-04-09T02:06:04.625Z,102288.53
2023-04-09T02:08:37.924Z,102289.50
2023-04-09T02:11:11.288Z,102285.03
2023-04-09T02:13:44.453Z,102277.22
2023-04-09T02:16:17.763Z,102268.91
2023-04-09T02:18:55.904Z,102287.53
2023-04-09T02:21:29.645Z,102283.91
2023-04-09T02:24:01.662Z,102284.88
2023-04-09T02:26:33.711Z,102278.63
2023-04-09T02:29:05.757Z,102286.41
2023-04-09T02:31:37.717Z,102273.88
2023-04-09T02:34:09.658Z,102281.94
2023-04-09T02:36:41.785Z,102274.69
2023-04-09T02:39:14.305Z,102276.50
2023-04-09T02:41:46.263Z,102285.41
2023-04-09T02:44:18.211Z,102281.78
2023-04-09T02:46:52.328Z,102279.06
2023-04-09T02:49:24.347Z,102277.34
2023-04-09T02:51:56.352Z,102279.97
2023-04-09T02:54:28.369Z,102267.59
2023-04-09T02:57:01.070Z,102273.56
2023-04-09T02:59:34.324Z,102254.47
2023-04-09T03:02:06.497Z,102268.13
2023-04-09T03:04:39.124Z,102266.38
2023-04-09T03:07:11.056Z,102264.00
2023-04-09T03:09:42.949Z,102254.06
2023-04-09T03:12:15.790Z,102258.31
2023-04-09T03:14:47.666Z,102261.63
2023-04-09T03:17:19.624Z,102260.91
2023-04-09T03:19:52.441Z,102259.00
2023-04-09T03:22:24.502Z,102265.16
2023-04-09T03:24:56.643Z,102248.38
2023-04-09T03:27:28.557Z,102249.22
2023-04-09T03:30:00.756Z,102248.13
2023-04-09T03:32:32.685Z,102254.22
2023-04-09T03:35:05.697Z,102249.72
2023-04-09T03:37:38.119Z,102245.25
2023-04-09T03:40:10.952Z,102244.22
2023-04-09T03:42:43.889Z,102233.03
2023-04-09T03:45:15.850Z,102234.91
2023-04-09T03:47:47.825Z,102239.47
2023-04-09T03:50:20.572Z,102242.81
2023-04-09T03:52:52.590Z,102244.47
2023-04-09T03:55:24.693Z,102236.41
2023-04-09T03:57:56.653Z,102243.16
2023-04-09T04:00:28.641Z,102244.88
2023-04-09T04:03:00.935Z,102240.69
2023-04-09T04:05:33.091Z,102246.81
2023-04-09T04:08:05.233Z,102239.81
2023-04-09T04:10:37.309Z,102204.28
2023-04-09T04:13:09.570Z,102230.44
2023-04-09T04:15:44.521Z,102249.34
2023-04-09T04:18:16.491Z,102249.94
2023-04-09T04:20:48.455Z,102249.78
2023-04-09T04:23:20.391Z,102245.38
2023-04-09T04:25:53.175Z,102247.16
2023-04-09T04:28:25.146Z,102253.88
2023-04-09T04:30:57.071Z,102243.03
2023-04-09T04:33:29.076Z,102245.41
2023-04-09T04:36:14.595Z,102246.16
2023-04-09T04:38:46.589Z,102207.94
2023-04-09T04:41:18.558Z,102250.19
2023-04-09T04:43:50.478Z,102245.53
2023-04-09T04:46:22.654Z,102232.81
2023-04-09T04:48:54.960Z,102248.47
2023-04-09T04:51:27.844Z,102242.59
2023-04-09T04:53:59.877Z,102249.31
2023-04-09T04:56:31.862Z,102253.44
2023-04-09T04:59:03.811Z,102240.59
2023-04-09T05:01:35.987Z,102245.91
2023-04-09T05:04:08.062Z,102242.84
2023-04-09T05:06:40.023Z,102251.94
2023-04-09T05:09:12.283Z,102256.28
2023-04-09T05:11:44.254Z,102252.69
2023-04-09T05:14:16.404Z,102242.63
2023-04-09T05:16:48.438Z,102245.09
2023-04-09T05:19:20.471Z,102233.41
2023-04-09T05:21:52.431Z,102204.56
2023-04-09T05:24:24.461Z,102235.75
2023-04-09T05:26:56.421Z,102241.84
2023-04-09T05:29:28.418Z,102242.59
2023-04-09T05:32:00.896Z,102236.34
2023-04-09T05:34:32.916Z,102240.44
2023-04-09T05:37:04.842Z,102250.28
2023-04-09T05:39:36.919Z,102247.50
2023-04-09T05:42:08.835Z,102239.25
2023-04-09T05:44:40.877Z,102239.38
2023-04-09T05:47:12.825Z,102243.06
2023-04-09T05:49:44.749Z,102240.06
2023-04-09T05:52:17.233Z,102235.56
2023-04-09T05:54:49.226Z,102238.28
2023-04-09T05:57:21.190Z,102250.75
2023-04-09T05:59:53.088Z,102245.72
2023-04-09T06:02:25.388Z,102234.44
2023-04-09T06:04:57.513Z,102248.03
2023-04-09T06:07:29.470Z,102250.00
2023-04-09T06:10:02.303Z,102246.38
2023-04-09T06:12:37.360Z,102257.41
2023-04-09T06:15:09.750Z,102259.56
2023-04-09T06:17:41.841Z,102259.09
2023-04-09T06:20:13.873Z,102257.69
2023-04-09T06:22:45.942Z,102252.53
2023-04-09T06:25:18.049Z,102242.75
2023-04-09T06:27:49.999Z,102260.91
2023-04-09T06:30:22.928Z,102267.41
2023-04-09T06:32:55.613Z,102257.03
2023-04-09T06:35:27.725Z,102268.19
2023-04-09T06:37:59.635Z,102272.91
2023-04-09T06:40:31.629Z,102271.34
2023-04-09T06:43:03.673Z,102271.66
2023-04-09T06:45:39.086Z,102276.94
2023-04-09T06:48:12.381Z,102280.88
2023-04-09T06:50:45.377Z,102267.19
2023-04-09T06:53:17.788Z,102264.56
2023-04-09T06:55:49.824Z,102269.41
2023-04-09T06:58:21.796Z,102266.19
2023-04-09T07:00:54.259Z,102283.56
2023-04-09T07:03:27.858Z,102276.22
2023-04-09T07:06:00.115Z,102278.34
2023-04-09T07:08:32.138Z,102282.09
2023-04-09T07:11:04.263Z,102278.19
2023-04-09T07:13:36.209Z,102274.13
2023-04-09T07:16:08.221Z,102274.13
2023-04-09T07:18:40.228Z,102276.09
2023-04-09T07:21:12.384Z,102279.72
2023-04-09T07:23:44.344Z,102283.34
2023-04-09T07:26:16.349Z,102274.00
2023-04-09T07:28:48.290Z,102277.34
2023-04-09T07:31:20.427Z,102278.09
2023-04-09T07:33:52.608Z,102277.03
2023-04-09T07:36:24.801Z,102282.06
2023-04-09T07:38:56.823Z,102275.53
2023-04-09T07:41:28.766Z,102276.53
2023-04-09T07:44:03.322Z,102281.72
2023-04-09T07:46:35.279Z,102280.56
2023-04-09T07:49:07.344Z,102276.53
2023-04-09T07:51:39.280Z,102270.78
2023-04-09T07:54:11.917Z,102272.22
2023-04-09T07:56:43.815Z,102272.56
2023-04-09T07:59:16.159Z,102263.66
2023-04-09T08:01:48.130Z,102274.81
2023-04-09T08:04:20.440Z,102270.31
2023-04-09T08:06:53.666Z,102274.75
2023-04-09T08:09:26.032Z,102259.97
2023-04-09T08:11:58.057Z,102263.66
2023-04-09T08:14:30.006Z,102264.66
2023-04-09T08:17:02.135Z,102265.28
2023-04-09T08:19:34.125Z,102271.53
2023-04-09T08:22:06.134Z,102267.75
2023-04-09T08:24:38.803Z,102267.53
2023-04-09T08:27:11.135Z,102266.38
2023-04-09T08:29:43.121Z,102273.84
2023-04-09T08:32:16.110Z,102262.84
2023-04-09T08:34:48.150Z,102266.50
2023-04-09T08:37:20.249Z,102265.31
2023-04-09T08:39:52.202Z,102236.69
2023-04-09T08:42:26.518Z,102265.84
2023-04-09T08:44:58.506Z,102266.25
2023-04-09T08:47:32.687Z,102260.75
2023-04-09T08:50:05.582Z,102252.69
2023-04-09T08:52:38.424Z,102254.91
2023-04-09T08:55:13.063Z,102262.69
2023-04-09T08:57:45.040Z,102261.56
2023-04-09T09:00:17.128Z,102259.25
2023-04-09T09:03:13.180Z,102253.41
2023-04-09T09:05:46.726Z,102259.66
2023-04-09T09:08:26.844Z,102257.56
2023-04-09T09:10:58.898Z,102250.25
2023-04-09T09:13:30.901Z,102256.72
2023-04-09T09:16:14.756Z,102266.31
2023-04-09T09:18:46.950Z,102254.81
2023-04-09T09:21:19.637Z,102255.75
2023-04-09T09:23:51.695Z,102261.47
2023-04-09T09:26:30.059Z,102252.69
2023-04-09T09:29:05.800Z,102251.41
2023-04-09T09:31:51.678Z,102249.69
2023-04-09T09:34:25.412Z,102241.16
2023-04-09T09:36:57.367Z,102243.19
2023-04-09T09:39:46.588Z,102249.63
2023-04-09T09:42:18.577Z,102245.03
2023-04-09T09:44:51.631Z,102240.03
2023-04-09T09:47:25.337Z,102233.31
2023-04-09T09:49:57.505Z,102233.97
2023-04-09T09:52:30.298Z,102231.09
2023-04-09T09:55:06.562Z,102220.63
2023-04-09T09:57:44.232Z,102225.84
2023-04-09T10:00:18.639Z,102220.75
2023-04-09T10:03:04.372Z,102216.00
2023-04-09T10:05:39.966Z,102209.81
2023-04-09T10:08:13.428Z,102204.19
2023-04-09T10:10:46.876Z,102198.50
2023-04-09T10:13:35.403Z,102199.09
2023-04-09T10:16:08.911Z,102199.50
2023-04-09T10:18:42.698Z,102195.00
2023-04-09T10:21:45.020Z,102194.53
2023-04-09T10:24:17.664Z,102186.84
2023-04-09T10:26:54.684Z,102187.44
2023-04-09T10:29:29.397Z,102182.56
2023-04-09T10:32:07.136Z,102180.22
2023-04-09T10:34:45.062Z,102178.25
2023-04-09T10:37:26.035Z,102164.38
2023-04-09T10:39:58.724Z,102171.09
2023-04-09T10:42:36.708Z,102153.31
2023-04-09T10:45:14.769Z,102165.69
2023-04-09T10:47:53.919Z,102162.28
2023-04-09T10:50:28.186Z,102154.59
2023-04-09T10:53:00.884Z,102158.19
2023-04-09T10:55:41.717Z,102158.56
2023-04-09T10:58:14.010Z,102155.44
2023-04-09T11:00:49.074Z,102153.44
2023-04-09T11:03:31.738Z,102142.91
2023-04-09T11:06:09.507Z,102142.84
2023-04-09T11:08:44.498Z,102144.41
2023-04-09T11:11:16.624Z,102137.13
2023-04-09T11:13:48.570Z,102142.97
2023-04-09T11:16:24.249Z,102135.72
2023-04-09T11:18:57.679Z,102127.03
2023-04-09T11:21:29.667Z,102124.56
2023-04-09T11:24:01.701Z,102130.38
2023-04-09T11:26:37.366Z,102125.22
2023-04-09T11:29:09.673Z,102127.19
2023-04-09T11:31:44.951Z,102128.44
2023-04-09T11:34:17.437Z,102119.25
2023-04-09T11:36:49.923Z,102125.16
2023-04-09T11:39:21.922Z,102119.66
2023-04-09T11:41:53.877Z,102119.84
2023-04-09T11:44:25.822Z,102119.34
2023-04-09T11:46:59.991Z,102120.16
2023-04-09T11:49:32.045Z,102113.13
2023-04-09T11:52:04.514Z,102117.03
2023-04-09T11:54:36.714Z,102112.94
2023-04-09T11:57:08.707Z,102112.22
2023-04-09T11:59:41.129Z,102111.00
2023-04-09T12:02:18.401Z,102117.03
2023-04-09T12:04:51.812Z,102110.84
2023-04-09T12:07:23.937Z,102111.69
2023-04-09T12:09:57.878Z,102109.25
2023-04-09T12:12:29.843Z,102103.38
2023-04-09T12:15:12.176Z,102098.47
2023-04-09T12:17:47.404Z,102103.19
2023-04-09T12:20:42.439Z,102096.91
2023-04-09T12:23:14.574Z,102095.31
2023-04-09T12:25:47.699Z,102096.63
2023-04-09T12:28:19.626Z,102098.84
2023-04-09T12:30:51.690Z,102082.94
2023-04-09T12:33:23.635Z,102082.25
2023-04-09T12:35:58.267Z,102076.31
2023-04-09T12:38:30.491Z,102069.13
2023-04-09T12:41:02.468Z,102058.06
2023-04-09T12:43:34.453Z,102085.31
2023-04-09T12:46:06.699Z,102079.81
2023-04-09T12:48:38.659Z,102078.75
2023-04-09T12:51:11.429Z,102085.63
2023-04-09T12:53:43.381Z,102080.56
2023-04-09T12:56:15.479Z,102071.00
2023-04-09T12:58:47.439Z,102071.34
2023-04-09T13:01:19.482Z,102068.16
2023-04-09T13:03:51.914Z,102066.56
2023-04-09T13:06:24.157Z,102069.44
2023-04-09T13:08:56.292Z,102063.28
2023-04-09T13:11:28.343Z,102047.31
2023-04-09T13:14:00.548Z,102066.94
2023-04-09T13:16:32.918Z,102063.38
2023-04-09T13:19:04.881Z,102068.03
2023-04-09T13:21:37.359Z,102066.38
2023-04-09T13:24:09.280Z,102055.78
2023-04-09T13:26:42.068Z,102053.22
2023-04-09T13:29:14.044Z,102059.50
2023-04-09T13:31:46.071Z,102055.97
2023-04-09T13:34:18.001Z,102065.78
2023-04-09T13:36:50.268Z,102066.38
2023-04-09T13:39:22.301Z,102065.06
2023-04-09T13:41:56.163Z,102054.06
2023-04-09T13:44:29.100Z,102065.31
2023-04-09T13:47:01.149Z,102055.25
2023-04-09T13:49:33.103Z,102054.59
2023-04-09T13:52:05.567Z,102053.06
2023-04-09T13:54:37.959Z,102053.16
2023-04-09T13:57:10.578Z,102045.88
2023-04-09T13:59:42.579Z,102047.44
2023-04-09T14:02:14.698Z,102043.97
2023-04-09T14:04:46.823Z,102029.84
2023-04-09T14:07:18.782Z,102029.72
2023-04-09T14:09:51.417Z,102030.19
2023-04-09T14:12:23.357Z,102030.69
2023-04-09T14:14:55.613Z,102018.81
2023-04-09T14:17:27.651Z,102035.53
2023-04-09T14:19:59.643Z,102032.53
2023-04-09T14:22:31.637Z,102022.56
2023-04-09T14:25:03.895Z,102020.81
2023-04-09T14:27:36.460Z,102010.84
2023-04-09T14:30:10.816Z,102004.44
2023-04-09T14:32:43.261Z,102017.66
2023-04-09T14:35:15.428Z,102020.06
2023-04-09T14:37:47.409Z,102006.44
2023-04-09T14:40:19.485Z,102007.38
2023-04-09T14:42:51.458Z,102010.03
2023-04-09T14:45:23.592Z,102000.19
2023-04-09T14:47:55.763Z,102009.00
2023-04-09T14:50:29.326Z,102007.13
2023-04-09T14:53:01.843Z,102012.50
2023-04-09T14:55:33.831Z,102006.09
2023-04-09T14:58:08.083Z,102012.38
2023-04-09T15:00:40.085Z,102000.75
2023-04-09T15:03:12.516Z,101996.31
2023-04-09T15:05:44.707Z,101987.44
2023-04-09T15:08:16.665Z,101977.63
2023-04-09T15:10:48.666Z,101975.03
2023-04-09T15:13:20.762Z,101977.47
2023-04-09T15:15:52.741Z,101970.19
2023-04-09T15:18:24.746Z,101982.69
2023-04-09T15:20:56.652Z,101969.41
2023-04-09T15:23:28.666Z,101961.41
2023-04-09T15:26:00.838Z,101958.16
2023-04-09T15:28:33.408Z,101946.88
2023-04-09T15:31:05.887Z,101950.53
2023-04-09T15:33:37.905Z,101939.94
2023-04-09T15:36:10.278Z,101927.50
2023-04-09T15:38:42.236Z,101941.88
2023-04-09T15:41:16.861Z,101938.47
2023-04-09T15:43:48.845Z,101942.88
2023-04-09T15:46:21.304Z,101947.97
2023-04-09T15:48:53.621Z,101949.69
2023-04-09T15:51:27.090Z,101952.53
2023-04-09T15:53:59.737Z,101950.03
2023-04-09T15:56:31.692Z,101949.38
2023-04-09T15:59:05.488Z,101939.69
2023-04-09T16:01:38.061Z,101953.03
2023-04-09T16:04:10.631Z,101951.22
2023-04-09T16:06:42.728Z,101946.91
2023-04-09T16:09:14.716Z,101937.31
2023-04-09T16:11:46.682Z,101933.84
2023-04-09T16:14:18.716Z,101939.19
2023-04-09T16:16:51.297Z,101939.22
2023-04-09T16:19:25.199Z,101948.97
2023-04-09T16:21:57.671Z,101956.91
2023-04-09T16:24:31.538Z,101952.34
2023-04-09T16:27:03.669Z,101939.78
2023-04-09T16:29:35.675Z,101928.91
2023-04-09T16:32:07.764Z,101941.31
2023-04-09T16:34:39.844Z,101942.84
2023-04-09T16:37:11.775Z,101923.88
2023-04-09T16:39:43.836Z,101925.66
2023-04-09T16:42:15.892Z,101931.03
2023-04-09T16:44:47.807Z,101931.91
2023-04-09T16:47:19.883Z,101925.53
2023-04-09T16:49:51.858Z,101929.97
2023-04-09T16:52:24.137Z,101926.34
2023-04-09T16:54:56.199Z,101938.69
2023-04-09T16:57:28.123Z,101929.47
2023-04-09T17:00:00.419Z,101927.72
2023-04-09T17:02:33.649Z,101935.84
2023-04-09T17:05:07.429Z,101933.25
2023-04-09T17:07:39.400Z,101924.41
2023-04-09T17:10:11.736Z,101898.44
2023-04-09T17:12:44.346Z,101923.50
2023-04-09T17:15:16.988Z,101918.00
2023-04-09T17:17:51.320Z,101920.66
2023-04-09T17:20:24.309Z,101907.28
2023-04-09T17:22:56.815Z,101909.97
2023-04-09T17:25:29.456Z,101907.94
2023-04-09T17:28:01.774Z,101905.03
2023-04-09T17:30:34.846Z,101911.19
2023-04-09T17:33:07.141Z,101910.19
2023-04-09T17:35:39.199Z,101915.56
2023-04-09T17:38:14.069Z,101915.47
2023-04-09T17:40:46.255Z,101921.38
2023-04-09T17:43:18.343Z,101922.00
2023-04-09T17:45:50.308Z,101924.38
2023-04-09T17:48:22.256Z,101919.94
2023-04-09T17:50:54.322Z,101927.00
2023-04-09T17:53:27.093Z,101925.22
2023-04-09T17:55:59.081Z,101922.44
2023-04-09T17:58:31.006Z,101925.84
2023-04-09T18:01:07.960Z,101924.91
2023-04-09T18:03:42.295Z,101920.19
2023-04-09T18:06:15.693Z,101921.97
2023-04-09T18:08:48.234Z,101926.47
2023-04-09T18:11:20.344Z,101919.22
2023-04-09T18:13:52.315Z,101923.56
2023-04-09T18:16:24.686Z,101924.34
2023-04-09T18:18:56.688Z,101923.41
2023-04-09T18:21:28.750Z,101925.97
2023-04-09T18:24:00.676Z,101922.25
2023-04-09T18:26:33.941Z,101927.41
2023-04-09T18:29:06.534Z,101925.53
2023-04-09T18:31:38.599Z,101932.47
2023-04-09T18:34:10.636Z,101934.16
2023-04-09T18:36:42.968Z,101932.09
2023-04-09T18:39:15.234Z,101925.19
2023-04-09T18:41:47.162Z,101928.47
2023-04-09T18:44:19.071Z,101930.97
2023-04-09T18:46:51.321Z,101929.91
2023-04-09T18:49:23.293Z,101938.63
2023-04-09T18:51:56.690Z,101936.63
2023-04-09T18:54:28.933Z,101933.81
2023-04-09T18:57:04.096Z,101932.88
2023-04-09T18:59:36.189Z,101945.06
2023-04-09T19:02:08.197Z,101940.47
2023-04-09T19:04:42.101Z,101947.41
2023-04-09T19:07:14.211Z,101944.50
2023-04-09T19:09:46.677Z,101939.84
2023-04-09T19:12:19.014Z,101949.44
2023-04-09T19:14:51.438Z,101945.69
2023-04-09T19:17:23.519Z,101955.22
2023-04-09T19:19:55.714Z,101963.84
2023-04-09T19:22:28.175Z,101952.06
2023-04-09T19:25:00.478Z,101949.13
2023-04-09T19:27:32.430Z,101950.78
2023-04-09T19:30:05.583Z,101947.94
2023-04-09T19:32:38.146Z,101943.38
2023-04-09T19:35:10.502Z,101943.94
2023-04-09T19:37:42.680Z,101934.97
2023-04-09T19:40:16.988Z,101918.53
2023-04-09T19:42:48.969Z,101932.84
2023-04-09T19:45:21.060Z,101940.63
2023-04-09T19:47:55.499Z,101932.50
2023-04-09T19:50:28.258Z,101937.81
2023-04-09T19:53:00.168Z,101932.41
2023-04-09T19:55:35.561Z,101936.75
2023-04-09T19:58:07.731Z,101934.72
2023-04-09T20:00:39.753Z,101949.78
2023-04-09T20:03:11.868Z,101946.03
2023-04-09T20:05:43.947Z,101938.94
2023-04-09T20:08:16.157Z,101936.81
2023-04-09T20:10:48.262Z,101939.34
2023-04-09T20:13:20.220Z,101942.88
2023-04-09T20:15:52.494Z,101945.38
2023-04-09T20:18:24.408Z,101933.81
2023-04-09T20:20:56.524Z,101936.38
2023-04-09T20:23:28.445Z,101927.44
2023-04-09T20:26:00.933Z,101923.88
2023-04-09T20:28:34.099Z,101917.59
2023-04-09T20:31:07.744Z,101907.78
2023-04-09T20:33:39.693Z,101920.41
2023-04-09T20:36:17.336Z,101915.00
2023-04-09T20:38:49.428Z,101919.41
2023-04-09T20:41:21.375Z,101917.53
2023-04-09T20:43:53.317Z,101914.00
2023-04-09T20:46:25.375Z,101909.53
2023-04-09T20:48:57.369Z,101905.03
2023-04-09T20:51:30.624Z,101905.88
2023-04-09T20:54:02.776Z,101908.53
2023-04-09T20:56:34.712Z,101898.78
2023-04-09T20:59:06.779Z,101902.28
2023-04-09T21:01:38.810Z,101896.09
2023-04-09T21:04:11.362Z,101903.06
2023-04-09T21:06:43.341Z,101894.97
2023-04-09T21:09:15.435Z,101890.53
2023-04-09T21:11:47.489Z,101883.28
2023-04-09T21:14:19.428Z,101891.13
2023-04-09T21:16:52.371Z,101888.31
2023-04-09T21:19:24.548Z,101889.22
2023-04-09T21:21:56.653Z,101885.75
2023-04-09T21:24:28.638Z,101888.16
2023-04-09T21:27:01.638Z,101883.81
2023-04-09T21:29:34.993Z,101885.44
2023-04-09T21:32:07.828Z,101887.16
2023-04-09T21:34:39.723Z,101886.06
2023-04-09T21:37:11.911Z,101893.88
2023-04-09T21:39:43.834Z,101894.88
2023-04-09T21:42:15.976Z,101897.44
2023-04-09T21:44:47.907Z,101902.50
2023-04-09T21:47:19.938Z,101836.06
2023-04-09T21:49:51.949Z,101895.41
2023-04-09T21:52:24.623Z,101898.00
2023-04-09T21:54:56.689Z,101891.56
2023-04-09T21:57:28.801Z,101903.94
2023-04-09T22:00:00.755Z,101903.00
2023-04-09T22:02:33.440Z,101902.81
2023-04-09T22:05:06.129Z,101894.84
2023-04-09T22:07:39.879Z,101893.03
2023-04-09T22:10:11.921Z,101903.59
2023-04-09T22:12:43.883Z,101900.88
2023-04-09T22:15:17.211Z,101900.88
2023-04-09T22:17:49.342Z,101900.75
2023-04-09T22:20:21.476Z,101897.19
2023-04-09T22:22:56.296Z,101901.41
2023-04-09T22:25:34.788Z,101902.31
2023-04-09T22:28:07.416Z,101903.97
2023-04-09T22:30:39.437Z,101897.56
2023-04-09T22:33:11.378Z,101904.53
2023-04-09T22:35:43.338Z,101899.13
2023-04-09T22:38:15.240Z,101906.19
2023-04-09T22:40:48.350Z,101905.13
2023-04-09T22:43:20.339Z,101908.69
2023-04-09T22:45:56.108Z,101900.44
2023-04-09T22:48:28.948Z,101907.38
2023-04-09T22:51:00.913Z,101912.56
2023-04-09T22:53:32.857Z,101924.81
2023-04-09T22:56:05.301Z,101888.06
2023-04-09T22:58:37.842Z,101919.16
2023-04-09T23:01:09.809Z,101921.66
2023-04-09T23:03:41.821Z,101914.28
2023-04-09T23:06:14.032Z,101908.88
2023-04-09T23:08:46.537Z,101915.09
2023-04-09T23:11:18.512Z,101904.38
2023-04-09T23:13:50.522Z,101898.94
2023-04-09T23:16:22.885Z,101904.38
2023-04-09T23:18:54.886Z,101902.47
2023-04-09T23:21:27.512Z,101906.84
2023-04-09T23:23:59.586Z,101897.63
2023-04-09T23:26:32.380Z,101910.03
2023-04-09T23:29:04.332Z,101897.41
2023-04-09T23:31:36.352Z,101899.28
2023-04-09T23:34:08.337Z,101883.06
2023-04-09T23:36:40.409Z,101897.41
2023-04-09T23:39:12.394Z,101890.41
2023-04-09T23:41:44.340Z,101892.00
2023-04-09T23:44:16.385Z,101887.31
2023-04-09T23:46:48.348Z,101890.03
2023-04-09T23:49:20.743Z,101888.22
2023-04-09T23:51:52.682Z,101889.16
2023-04-09T23:54:24.607Z,101890.97
2023-04-09T23:56:58.555Z,101871.16
2023-04-09T23:59:33.948Z,101874.00
